sensor_id;sensor_type;location;lat;lon;timestamp;P1;durP1;ratioP1;P2;durP2;ratioP2
64682;SDS011;51107;47.652;19.016;2023-12-22T00:00:00;5.32;;;3.42;;
64682;SDS011;51107;47.652;19.016;2023-12-22T00:02:31;3.22;;;1.90;;
64682;SDS011;51107;47.652;19.016;2023-12-22T00:04:59;4.50;;;2.12;;
64682;SDS011;51107;47.652;19.016;2023-12-22T00:07:27;3.42;;;2.55;;
64682;SDS011;51107;47.652;19.016;2023-12-22T00:09:56;3.90;;;1.80;;
64682;SDS011;51107;47.652;19.016;2023-12-22T00:12:24;2.65;;;1.75;;
64682;SDS011;51107;47.652;19.016;2023-12-22T00:14:52;3.33;;;1.83;;
64682;SDS011;51107;47.652;19.016;2023-12-22T00:17:20;3.65;;;2.00;;
64682;SDS011;51107;47.652;19.016;2023-12-22T00:19:48;2.17;;;1.00;;
64682;SDS011;51107;47.652;19.016;2023-12-22T00:22:16;1.67;;;1.23;;
64682;SDS011;51107;47.652;19.016;2023-12-22T00:24:44;1.15;;;0.90;;
64682;SDS011;51107;47.652;19.016;2023-12-22T00:27:13;1.92;;;1.30;;
64682;SDS011;51107;47.652;19.016;2023-12-22T00:29:40;2.10;;;0.90;;
64682;SDS011;51107;47.652;19.016;2023-12-22T00:32:08;1.73;;;1.12;;
64682;SDS011;51107;47.652;19.016;2023-12-22T00:34:37;2.78;;;1.12;;
64682;SDS011;51107;47.652;19.016;2023-12-22T00:37:05;1.77;;;1.00;;
64682;SDS011;51107;47.652;19.016;2023-12-22T00:39:33;2.15;;;1.25;;
64682;SDS011;51107;47.652;19.016;2023-12-22T00:42:02;1.00;;;0.50;;
64682;SDS011;51107;47.652;19.016;2023-12-22T00:44:31;1.60;;;0.88;;
64682;SDS011;51107;47.652;19.016;2023-12-22T00:46:59;3.72;;;1.48;;
64682;SDS011;51107;47.652;19.016;2023-12-22T00:49:28;1.55;;;0.93;;
64682;SDS011;51107;47.652;19.016;2023-12-22T00:51:56;1.98;;;1.12;;
64682;SDS011;51107;47.652;19.016;2023-12-22T00:54:24;3.10;;;1.30;;
64682;SDS011;51107;47.652;19.016;2023-12-22T00:56:52;2.97;;;1.50;;
64682;SDS011;51107;47.652;19.016;2023-12-22T00:59:20;3.60;;;1.67;;
64682;SDS011;51107;47.652;19.016;2023-12-22T01:01:49;6.65;;;1.35;;
64682;SDS011;51107;47.652;19.016;2023-12-22T01:04:17;4.12;;;2.00;;
64682;SDS011;51107;47.652;19.016;2023-12-22T01:06:46;3.00;;;1.55;;
64682;SDS011;51107;47.652;19.016;2023-12-22T01:09:14;2.97;;;1.50;;
64682;SDS011;51107;47.652;19.016;2023-12-22T01:11:42;1.48;;;1.20;;
64682;SDS011;51107;47.652;19.016;2023-12-22T01:14:10;2.60;;;1.30;;
64682;SDS011;51107;47.652;19.016;2023-12-22T01:16:40;2.75;;;1.35;;
64682;SDS011;51107;47.652;19.016;2023-12-22T01:19:09;2.25;;;1.00;;
64682;SDS011;51107;47.652;19.016;2023-12-22T01:21:37;1.80;;;1.20;;
64682;SDS011;51107;47.652;19.016;2023-12-22T01:24:05;2.33;;;1.37;;
64682;SDS011;51107;47.652;19.016;2023-12-22T01:26:33;2.15;;;1.40;;
64682;SDS011;51107;47.652;19.016;2023-12-22T01:29:01;2.83;;;0.95;;
64682;SDS011;51107;47.652;19.016;2023-12-22T01:31:29;2.40;;;1.42;;
64682;SDS011;51107;47.652;19.016;2023-12-22T01:33:58;2.05;;;1.62;;
64682;SDS011;51107;47.652;19.016;2023-12-22T01:36:26;3.03;;;1.23;;
64682;SDS011;51107;47.652;19.016;2023-12-22T01:38:54;2.33;;;1.30;;
64682;SDS011;51107;47.652;19.016;2023-12-22T01:41:23;1.33;;;0.88;;
64682;SDS011;51107;47.652;19.016;2023-12-22T01:43:51;2.33;;;1.35;;
64682;SDS011;51107;47.652;19.016;2023-12-22T01:46:19;1.42;;;0.75;;
64682;SDS011;51107;47.652;19.016;2023-12-22T01:48:48;1.40;;;1.00;;
64682;SDS011;51107;47.652;19.016;2023-12-22T01:51:16;2.87;;;1.02;;
64682;SDS011;51107;47.652;19.016;2023-12-22T01:53:45;0.52;;;0.52;;
64682;SDS011;51107;47.652;19.016;2023-12-22T01:56:14;1.20;;;0.57;;
64682;SDS011;51107;47.652;19.016;2023-12-22T01:58:42;0.60;;;0.40;;
64682;SDS011;51107;47.652;19.016;2023-12-22T02:01:11;0.45;;;0.43;;
64682;SDS011;51107;47.652;19.016;2023-12-22T02:03:41;2.00;;;0.50;;
64682;SDS011;51107;47.652;19.016;2023-12-22T02:06:09;2.20;;;1.17;;
64682;SDS011;51107;47.652;19.016;2023-12-22T02:08:38;1.55;;;0.65;;
64682;SDS011;51107;47.652;19.016;2023-12-22T02:11:06;0.37;;;0.35;;
64682;SDS011;51107;47.652;19.016;2023-12-22T02:13:34;0.47;;;0.43;;
64682;SDS011;51107;47.652;19.016;2023-12-22T02:16:09;0.40;;;0.30;;
64682;SDS011;51107;47.652;19.016;2023-12-22T02:18:46;1.70;;;0.32;;
64682;SDS011;51107;47.652;19.016;2023-12-22T02:21:18;0.30;;;0.17;;
64682;SDS011;51107;47.652;19.016;2023-12-22T02:23:47;0.10;;;0.10;;
64682;SDS011;51107;47.652;19.016;2023-12-22T02:26:37;0.20;;;0.20;;
64682;SDS011;51107;47.652;19.016;2023-12-22T02:29:11;0.30;;;0.13;;
64682;SDS011;51107;47.652;19.016;2023-12-22T02:31:43;0.25;;;0.10;;
64682;SDS011;51107;47.652;19.016;2023-12-22T02:34:18;0.10;;;0.10;;
64682;SDS011;51107;47.652;19.016;2023-12-22T02:36:47;0.15;;;0.10;;
64682;SDS011;51107;47.652;19.016;2023-12-22T02:39:18;0.52;;;0.30;;
64682;SDS011;51107;47.652;19.016;2023-12-22T02:41:47;0.30;;;0.30;;
64682;SDS011;51107;47.652;19.016;2023-12-22T02:44:16;0.05;;;0.05;;
64682;SDS011;51107;47.652;19.016;2023-12-22T02:46:45;1.73;;;0.52;;
64682;SDS011;51107;47.652;19.016;2023-12-22T02:49:14;0.45;;;0.30;;
64682;SDS011;51107;47.652;19.016;2023-12-22T02:51:42;0.15;;;0.10;;
64682;SDS011;51107;47.652;19.016;2023-12-22T02:54:10;0.30;;;0.30;;
64682;SDS011;51107;47.652;19.016;2023-12-22T02:56:38;0.30;;;0.30;;
64682;SDS011;51107;47.652;19.016;2023-12-22T02:59:06;0.43;;;0.35;;
64682;SDS011;51107;47.652;19.016;2023-12-22T03:01:34;0.65;;;0.37;;
64682;SDS011;51107;47.652;19.016;2023-12-22T03:04:02;0.37;;;0.37;;
64682;SDS011;51107;47.652;19.016;2023-12-22T03:06:30;1.65;;;0.85;;
64682;SDS011;51107;47.652;19.016;2023-12-22T03:08:59;0.30;;;0.30;;
64682;SDS011;51107;47.652;19.016;2023-12-22T03:11:27;0.40;;;0.30;;
64682;SDS011;51107;47.652;19.016;2023-12-22T03:13:54;0.57;;;0.25;;
64682;SDS011;51107;47.652;19.016;2023-12-22T03:16:23;0.00;;;0.00;;
64682;SDS011;51107;47.652;19.016;2023-12-22T03:18:51;0.10;;;0.10;;
64682;SDS011;51107;47.652;19.016;2023-12-22T03:21:19;0.15;;;0.13;;
64682;SDS011;51107;47.652;19.016;2023-12-22T03:23:47;0.00;;;0.00;;
64682;SDS011;51107;47.652;19.016;2023-12-22T03:26:15;0.25;;;0.03;;
64682;SDS011;51107;47.652;19.016;2023-12-22T03:28:43;0.70;;;0.20;;
64682;SDS011;51107;47.652;19.016;2023-12-22T03:31:12;0.00;;;0.00;;
64682;SDS011;51107;47.652;19.016;2023-12-22T03:33:40;0.20;;;0.20;;
64682;SDS011;51107;47.652;19.016;2023-12-22T03:36:08;0.52;;;0.13;;
64682;SDS011;51107;47.652;19.016;2023-12-22T03:38:36;0.20;;;0.20;;
64682;SDS011;51107;47.652;19.016;2023-12-22T03:41:04;0.32;;;0.28;;
64682;SDS011;51107;47.652;19.016;2023-12-22T03:43:32;0.43;;;0.22;;
64682;SDS011;51107;47.652;19.016;2023-12-22T03:46:01;0.15;;;0.15;;
64682;SDS011;51107;47.652;19.016;2023-12-22T03:48:30;0.10;;;0.10;;
64682;SDS011;51107;47.652;19.016;2023-12-22T03:50:58;0.28;;;0.28;;
64682;SDS011;51107;47.652;19.016;2023-12-22T03:53:26;0.10;;;0.10;;
64682;SDS011;51107;47.652;19.016;2023-12-22T03:55:54;0.22;;;0.10;;
64682;SDS011;51107;47.652;19.016;2023-12-22T03:58:23;1.62;;;0.43;;
64682;SDS011;51107;47.652;19.016;2023-12-22T04:00:51;0.10;;;0.05;;
64682;SDS011;51107;47.652;19.016;2023-12-22T04:03:20;0.00;;;0.00;;
64682;SDS011;51107;47.652;19.016;2023-12-22T04:05:48;0.00;;;0.00;;
64682;SDS011;51107;47.652;19.016;2023-12-22T04:08:16;0.22;;;0.10;;
64682;SDS011;51107;47.652;19.016;2023-12-22T04:10:44;0.10;;;0.10;;
64682;SDS011;51107;47.652;19.016;2023-12-22T04:13:12;0.32;;;0.10;;
64682;SDS011;51107;47.652;19.016;2023-12-22T04:15:41;1.55;;;0.00;;
64682;SDS011;51107;47.652;19.016;2023-12-22T04:18:09;0.30;;;0.20;;
64682;SDS011;51107;47.652;19.016;2023-12-22T04:20:37;0.25;;;0.25;;
64682;SDS011;51107;47.652;19.016;2023-12-22T04:23:05;0.37;;;0.25;;
64682;SDS011;51107;47.652;19.016;2023-12-22T04:25:33;0.77;;;0.35;;
64682;SDS011;51107;47.652;19.016;2023-12-22T04:28:01;0.00;;;0.00;;
64682;SDS011;51107;47.652;19.016;2023-12-22T04:30:29;1.05;;;0.30;;
64682;SDS011;51107;47.652;19.016;2023-12-22T04:33:01;0.17;;;0.17;;
64682;SDS011;51107;47.652;19.016;2023-12-22T04:35:29;0.22;;;0.22;;
64682;SDS011;51107;47.652;19.016;2023-12-22T04:37:57;0.00;;;0.00;;
64682;SDS011;51107;47.652;19.016;2023-12-22T04:40:25;0.00;;;0.00;;
64682;SDS011;51107;47.652;19.016;2023-12-22T04:42:55;0.10;;;0.10;;
64682;SDS011;51107;47.652;19.016;2023-12-22T04:45:23;0.10;;;0.10;;
64682;SDS011;51107;47.652;19.016;2023-12-22T04:47:52;0.45;;;0.28;;
64682;SDS011;51107;47.652;19.016;2023-12-22T04:50:20;0.10;;;0.10;;
64682;SDS011;51107;47.652;19.016;2023-12-22T04:52:48;1.55;;;0.52;;
64682;SDS011;51107;47.652;19.016;2023-12-22T04:55:17;0.37;;;0.03;;
64682;SDS011;51107;47.652;19.016;2023-12-22T04:57:45;0.57;;;0.40;;
64682;SDS011;51107;47.652;19.016;2023-12-22T05:00:13;2.55;;;0.40;;
64682;SDS011;51107;47.652;19.016;2023-12-22T05:02:42;0.40;;;0.30;;
64682;SDS011;51107;47.652;19.016;2023-12-22T05:05:10;0.70;;;0.37;;
64682;SDS011;51107;47.652;19.016;2023-12-22T05:07:39;0.80;;;0.20;;
64682;SDS011;51107;47.652;19.016;2023-12-22T05:10:08;0.60;;;0.20;;
64682;SDS011;51107;47.652;19.016;2023-12-22T05:12:36;0.40;;;0.40;;
64682;SDS011;51107;47.652;19.016;2023-12-22T05:15:04;2.00;;;0.52;;
64682;SDS011;51107;47.652;19.016;2023-12-22T05:17:33;0.13;;;0.13;;
64682;SDS011;51107;47.652;19.016;2023-12-22T05:20:01;2.83;;;0.10;;
64682;SDS011;51107;47.652;19.016;2023-12-22T05:22:30;0.20;;;0.10;;
64682;SDS011;51107;47.652;19.016;2023-12-22T05:25:04;0.40;;;0.08;;
64682;SDS011;51107;47.652;19.016;2023-12-22T05:27:32;0.93;;;0.52;;
64682;SDS011;51107;47.652;19.016;2023-12-22T05:30:00;0.00;;;0.00;;
64682;SDS011;51107;47.652;19.016;2023-12-22T05:32:31;0.00;;;0.00;;
64682;SDS011;51107;47.652;19.016;2023-12-22T05:34:59;0.28;;;0.28;;
64682;SDS011;51107;47.652;19.016;2023-12-22T05:37:28;0.65;;;0.60;;
64682;SDS011;51107;47.652;19.016;2023-12-22T05:39:56;0.60;;;0.43;;
64682;SDS011;51107;47.652;19.016;2023-12-22T05:42:24;0.13;;;0.10;;
64682;SDS011;51107;47.652;19.016;2023-12-22T05:44:52;0.00;;;0.00;;
64682;SDS011;51107;47.652;19.016;2023-12-22T05:47:20;0.03;;;0.03;;
64682;SDS011;51107;47.652;19.016;2023-12-22T05:49:49;0.52;;;0.28;;
64682;SDS011;51107;47.652;19.016;2023-12-22T05:52:17;0.35;;;0.13;;
64682;SDS011;51107;47.652;19.016;2023-12-22T05:54:45;0.65;;;0.03;;
64682;SDS011;51107;47.652;19.016;2023-12-22T05:57:13;2.08;;;0.40;;
64682;SDS011;51107;47.652;19.016;2023-12-22T05:59:41;3.92;;;0.10;;
64682;SDS011;51107;47.652;19.016;2023-12-22T06:02:09;0.90;;;0.65;;
64682;SDS011;51107;47.652;19.016;2023-12-22T06:04:38;0.40;;;0.40;;
64682;SDS011;51107;47.652;19.016;2023-12-22T06:07:06;0.28;;;0.28;;
64682;SDS011;51107;47.652;19.016;2023-12-22T06:09:34;20.67;;;0.95;;
64682;SDS011;51107;47.652;19.016;2023-12-22T06:12:02;0.75;;;0.50;;
64682;SDS011;51107;47.652;19.016;2023-12-22T06:14:31;0.40;;;0.40;;
64682;SDS011;51107;47.652;19.016;2023-12-22T06:16:59;0.50;;;0.25;;
64682;SDS011;51107;47.652;19.016;2023-12-22T06:19:28;0.30;;;0.30;;
64682;SDS011;51107;47.652;19.016;2023-12-22T06:21:58;0.28;;;0.28;;
64682;SDS011;51107;47.652;19.016;2023-12-22T06:24:27;1.75;;;0.40;;
64682;SDS011;51107;47.652;19.016;2023-12-22T06:26:55;0.77;;;0.52;;
64682;SDS011;51107;47.652;19.016;2023-12-22T06:29:23;0.47;;;0.47;;
64682;SDS011;51107;47.652;19.016;2023-12-22T06:31:53;0.45;;;0.25;;
64682;SDS011;51107;47.652;19.016;2023-12-22T06:34:21;2.20;;;0.37;;
64682;SDS011;51107;47.652;19.016;2023-12-22T06:36:49;0.40;;;0.20;;
64682;SDS011;51107;47.652;19.016;2023-12-22T06:39:18;1.77;;;0.68;;
64682;SDS011;51107;47.652;19.016;2023-12-22T06:41:47;0.77;;;0.20;;
64682;SDS011;51107;47.652;19.016;2023-12-22T06:44:15;0.68;;;0.40;;
64682;SDS011;51107;47.652;19.016;2023-12-22T06:46:43;0.20;;;0.15;;
64682;SDS011;51107;47.652;19.016;2023-12-22T06:49:12;0.43;;;0.43;;
64682;SDS011;51107;47.652;19.016;2023-12-22T06:51:41;0.20;;;0.20;;
64682;SDS011;51107;47.652;19.016;2023-12-22T06:54:09;0.90;;;0.43;;
64682;SDS011;51107;47.652;19.016;2023-12-22T06:56:40;0.37;;;0.37;;
64682;SDS011;51107;47.652;19.016;2023-12-22T06:59:08;0.47;;;0.47;;
64682;SDS011;51107;47.652;19.016;2023-12-22T07:01:41;1.75;;;0.90;;
64682;SDS011;51107;47.652;19.016;2023-12-22T07:04:15;0.45;;;0.30;;
64682;SDS011;51107;47.652;19.016;2023-12-22T07:06:43;0.73;;;0.43;;
64682;SDS011;51107;47.652;19.016;2023-12-22T07:11:45;0.50;;;0.47;;
64682;SDS011;51107;47.652;19.016;2023-12-22T07:14:14;0.20;;;0.20;;
64682;SDS011;51107;47.652;19.016;2023-12-22T07:16:43;0.10;;;0.10;;
64682;SDS011;51107;47.652;19.016;2023-12-22T07:19:11;0.40;;;0.25;;
64682;SDS011;51107;47.652;19.016;2023-12-22T07:21:42;0.35;;;0.17;;
64682;SDS011;51107;47.652;19.016;2023-12-22T07:24:13;5.87;;;0.30;;
64682;SDS011;51107;47.652;19.016;2023-12-22T07:26:43;0.95;;;0.60;;
64682;SDS011;51107;47.652;19.016;2023-12-22T07:29:14;0.43;;;0.13;;
64682;SDS011;51107;47.652;19.016;2023-12-22T07:31:46;2.42;;;0.20;;
64682;SDS011;51107;47.652;19.016;2023-12-22T07:34:14;3.15;;;0.30;;
64682;SDS011;51107;47.652;19.016;2023-12-22T07:36:43;3.37;;;0.20;;
64682;SDS011;51107;47.652;19.016;2023-12-22T07:39:25;0.93;;;0.47;;
64682;SDS011;51107;47.652;19.016;2023-12-22T07:41:53;0.40;;;0.40;;
64682;SDS011;51107;47.652;19.016;2023-12-22T07:44:22;0.55;;;0.50;;
64682;SDS011;51107;47.652;19.016;2023-12-22T07:46:58;0.10;;;0.10;;
64682;SDS011;51107;47.652;19.016;2023-12-22T07:49:30;0.37;;;0.37;;
64682;SDS011;51107;47.652;19.016;2023-12-22T07:51:59;0.52;;;0.35;;
64682;SDS011;51107;47.652;19.016;2023-12-22T07:54:31;0.57;;;0.35;;
64682;SDS011;51107;47.652;19.016;2023-12-22T07:56:59;2.33;;;0.95;;
64682;SDS011;51107;47.652;19.016;2023-12-22T07:59:27;0.32;;;0.15;;
64682;SDS011;51107;47.652;19.016;2023-12-22T08:01:59;0.22;;;0.17;;
64682;SDS011;51107;47.652;19.016;2023-12-22T08:04:28;0.98;;;0.70;;
64682;SDS011;51107;47.652;19.016;2023-12-22T08:06:56;0.80;;;0.32;;
64682;SDS011;51107;47.652;19.016;2023-12-22T08:09:24;0.20;;;0.08;;
64682;SDS011;51107;47.652;19.016;2023-12-22T08:11:53;0.45;;;0.30;;
64682;SDS011;51107;47.652;19.016;2023-12-22T08:14:21;2.45;;;0.70;;
64682;SDS011;51107;47.652;19.016;2023-12-22T08:16:49;0.00;;;0.00;;
64682;SDS011;51107;47.652;19.016;2023-12-22T08:19:17;0.25;;;0.08;;
64682;SDS011;51107;47.652;19.016;2023-12-22T08:21:46;0.80;;;0.60;;
64682;SDS011;51107;47.652;19.016;2023-12-22T08:24:17;0.95;;;0.20;;
64682;SDS011;51107;47.652;19.016;2023-12-22T08:26:50;0.32;;;0.30;;
64682;SDS011;51107;47.652;19.016;2023-12-22T08:29:19;2.83;;;0.88;;
64682;SDS011;51107;47.652;19.016;2023-12-22T08:31:47;1.73;;;0.32;;
64682;SDS011;51107;47.652;19.016;2023-12-22T08:34:15;2.87;;;0.30;;
64682;SDS011;51107;47.652;19.016;2023-12-22T08:36:44;0.45;;;0.35;;
64682;SDS011;51107;47.652;19.016;2023-12-22T08:39:12;1.95;;;0.37;;
64682;SDS011;51107;47.652;19.016;2023-12-22T08:41:41;0.75;;;0.57;;
64682;SDS011;51107;47.652;19.016;2023-12-22T08:44:10;0.77;;;0.37;;
64682;SDS011;51107;47.652;19.016;2023-12-22T08:46:39;2.03;;;0.65;;
64682;SDS011;51107;47.652;19.016;2023-12-22T08:49:07;1.42;;;0.65;;
64682;SDS011;51107;47.652;19.016;2023-12-22T08:51:35;1.60;;;0.62;;
64682;SDS011;51107;47.652;19.016;2023-12-22T08:54:04;0.43;;;0.37;;
64682;SDS011;51107;47.652;19.016;2023-12-22T08:56:32;0.20;;;0.10;;
64682;SDS011;51107;47.652;19.016;2023-12-22T08:59:03;0.77;;;0.45;;
64682;SDS011;51107;47.652;19.016;2023-12-22T09:01:31;1.67;;;0.37;;
64682;SDS011;51107;47.652;19.016;2023-12-22T09:03:59;0.90;;;0.35;;
64682;SDS011;51107;47.652;19.016;2023-12-22T09:06:27;5.30;;;0.77;;
64682;SDS011;51107;47.652;19.016;2023-12-22T09:08:55;0.60;;;0.52;;
64682;SDS011;51107;47.652;19.016;2023-12-22T09:11:23;0.77;;;0.55;;
64682;SDS011;51107;47.652;19.016;2023-12-22T09:13:53;1.25;;;0.80;;
64682;SDS011;51107;47.652;19.016;2023-12-22T09:16:22;6.18;;;1.05;;
64682;SDS011;51107;47.652;19.016;2023-12-22T09:18:51;0.62;;;0.22;;
64682;SDS011;51107;47.652;19.016;2023-12-22T09:21:20;1.85;;;0.82;;
64682;SDS011;51107;47.652;19.016;2023-12-22T09:23:48;1.05;;;0.50;;
64682;SDS011;51107;47.652;19.016;2023-12-22T09:26:17;0.93;;;0.82;;
64682;SDS011;51107;47.652;19.016;2023-12-22T09:28:46;0.32;;;0.28;;
64682;SDS011;51107;47.652;19.016;2023-12-22T09:31:14;0.25;;;0.17;;
64682;SDS011;51107;47.652;19.016;2023-12-22T09:33:42;3.75;;;1.05;;
64682;SDS011;51107;47.652;19.016;2023-12-22T09:36:11;2.45;;;1.15;;
64682;SDS011;51107;47.652;19.016;2023-12-22T09:38:39;2.00;;;0.65;;
64682;SDS011;51107;47.652;19.016;2023-12-22T09:41:09;1.10;;;0.43;;
64682;SDS011;51107;47.652;19.016;2023-12-22T09:43:38;3.45;;;0.40;;
64682;SDS011;51107;47.652;19.016;2023-12-22T09:46:07;0.50;;;0.30;;
64682;SDS011;51107;47.652;19.016;2023-12-22T09:48:37;1.02;;;0.40;;
64682;SDS011;51107;47.652;19.016;2023-12-22T09:51:08;1.95;;;0.43;;
64682;SDS011;51107;47.652;19.016;2023-12-22T09:53:37;0.40;;;0.22;;
64682;SDS011;51107;47.652;19.016;2023-12-22T09:56:06;0.22;;;0.15;;
64682;SDS011;51107;47.652;19.016;2023-12-22T09:58:35;0.30;;;0.10;;
64682;SDS011;51107;47.652;19.016;2023-12-22T10:01:05;0.45;;;0.32;;
64682;SDS011;51107;47.652;19.016;2023-12-22T10:03:35;0.65;;;0.43;;
64682;SDS011;51107;47.652;19.016;2023-12-22T10:06:05;0.62;;;0.43;;
64682;SDS011;51107;47.652;19.016;2023-12-22T10:08:33;0.10;;;0.03;;
64682;SDS011;51107;47.652;19.016;2023-12-22T10:11:03;4.87;;;0.37;;
64682;SDS011;51107;47.652;19.016;2023-12-22T10:13:33;1.35;;;0.37;;
64682;SDS011;51107;47.652;19.016;2023-12-22T10:16:04;0.68;;;0.22;;
64682;SDS011;51107;47.652;19.016;2023-12-22T10:18:34;0.22;;;0.22;;
64682;SDS011;51107;47.652;19.016;2023-12-22T10:21:02;0.80;;;0.70;;
64682;SDS011;51107;47.652;19.016;2023-12-22T10:23:30;0.17;;;0.15;;
64682;SDS011;51107;47.652;19.016;2023-12-22T10:25:59;5.07;;;0.57;;
64682;SDS011;51107;47.652;19.016;2023-12-22T10:28:28;0.15;;;0.15;;
64682;SDS011;51107;47.652;19.016;2023-12-22T10:30:56;0.73;;;0.45;;
64682;SDS011;51107;47.652;19.016;2023-12-22T10:33:31;0.52;;;0.30;;
64682;SDS011;51107;47.652;19.016;2023-12-22T10:36:00;0.80;;;0.28;;
64682;SDS011;51107;47.652;19.016;2023-12-22T10:38:32;0.85;;;0.55;;
64682;SDS011;51107;47.652;19.016;2023-12-22T10:41:03;2.72;;;0.50;;
64682;SDS011;51107;47.652;19.016;2023-12-22T10:43:39;0.82;;;0.65;;
64682;SDS011;51107;47.652;19.016;2023-12-22T10:46:08;6.30;;;0.93;;
64682;SDS011;51107;47.652;19.016;2023-12-22T10:48:39;1.05;;;0.40;;
64682;SDS011;51107;47.652;19.016;2023-12-22T10:51:11;1.85;;;0.40;;
64682;SDS011;51107;47.652;19.016;2023-12-22T10:53:40;1.92;;;0.75;;
64682;SDS011;51107;47.652;19.016;2023-12-22T10:56:10;0.30;;;0.30;;
64682;SDS011;51107;47.652;19.016;2023-12-22T10:58:38;0.65;;;0.35;;
64682;SDS011;51107;47.652;19.016;2023-12-22T11:01:07;0.37;;;0.20;;
64682;SDS011;51107;47.652;19.016;2023-12-22T11:03:38;0.30;;;0.30;;
64682;SDS011;51107;47.652;19.016;2023-12-22T11:06:08;1.60;;;0.70;;
64682;SDS011;51107;47.652;19.016;2023-12-22T11:08:38;0.37;;;0.28;;
64682;SDS011;51107;47.652;19.016;2023-12-22T11:11:13;2.75;;;0.62;;
64682;SDS011;51107;47.652;19.016;2023-12-22T11:13:47;0.80;;;0.40;;
64682;SDS011;51107;47.652;19.016;2023-12-22T11:16:17;1.52;;;1.08;;
64682;SDS011;51107;47.652;19.016;2023-12-22T11:18:46;1.30;;;0.47;;
64682;SDS011;51107;47.652;19.016;2023-12-22T11:21:18;0.30;;;0.22;;
64682;SDS011;51107;47.652;19.016;2023-12-22T11:23:46;0.75;;;0.37;;
64682;SDS011;51107;47.652;19.016;2023-12-22T11:26:20;0.20;;;0.20;;
64682;SDS011;51107;47.652;19.016;2023-12-22T11:28:49;1.02;;;0.35;;
64682;SDS011;51107;47.652;19.016;2023-12-22T11:31:19;0.32;;;0.30;;
64682;SDS011;51107;47.652;19.016;2023-12-22T11:33:49;0.20;;;0.10;;
64682;SDS011;51107;47.652;19.016;2023-12-22T11:36:31;0.68;;;0.20;;
64682;SDS011;51107;47.652;19.016;2023-12-22T11:38:59;0.40;;;0.17;;
64682;SDS011;51107;47.652;19.016;2023-12-22T11:41:29;0.37;;;0.20;;
64682;SDS011;51107;47.652;19.016;2023-12-22T11:43:59;2.22;;;0.50;;
64682;SDS011;51107;47.652;19.016;2023-12-22T11:46:32;0.17;;;0.17;;
64682;SDS011;51107;47.652;19.016;2023-12-22T11:49:02;0.32;;;0.20;;
64682;SDS011;51107;47.652;19.016;2023-12-22T11:51:33;2.05;;;0.90;;
64682;SDS011;51107;47.652;19.016;2023-12-22T11:54:03;5.40;;;0.43;;
64682;SDS011;51107;47.652;19.016;2023-12-22T11:56:31;2.83;;;0.30;;
64682;SDS011;51107;47.652;19.016;2023-12-22T11:58:59;1.25;;;0.77;;
64682;SDS011;51107;47.652;19.016;2023-12-22T12:01:29;0.32;;;0.30;;
64682;SDS011;51107;47.652;19.016;2023-12-22T12:04:03;2.10;;;0.90;;
64682;SDS011;51107;47.652;19.016;2023-12-22T12:06:34;0.35;;;0.25;;
64682;SDS011;51107;47.652;19.016;2023-12-22T12:09:05;0.30;;;0.30;;
64682;SDS011;51107;47.652;19.016;2023-12-22T12:14:25;0.40;;;0.25;;
64682;SDS011;51107;47.652;19.016;2023-12-22T12:17:08;0.60;;;0.15;;
64682;SDS011;51107;47.652;19.016;2023-12-22T12:19:41;0.47;;;0.30;;
64682;SDS011;51107;47.652;19.016;2023-12-22T12:22:12;8.30;;;0.70;;
64682;SDS011;51107;47.652;19.016;2023-12-22T12:24:43;4.28;;;0.30;;
64682;SDS011;51107;47.652;19.016;2023-12-22T12:27:17;0.30;;;0.25;;
64682;SDS011;51107;47.652;19.016;2023-12-22T12:29:47;0.25;;;0.25;;
64682;SDS011;51107;47.652;19.016;2023-12-22T12:32:15;0.57;;;0.32;;
64682;SDS011;51107;47.652;19.016;2023-12-22T12:34:43;0.55;;;0.20;;
64682;SDS011;51107;47.652;19.016;2023-12-22T12:37:12;0.75;;;0.60;;
64682;SDS011;51107;47.652;19.016;2023-12-22T12:39:40;14.60;;;0.82;;
64682;SDS011;51107;47.652;19.016;2023-12-22T12:42:11;0.68;;;0.22;;
64682;SDS011;51107;47.652;19.016;2023-12-22T12:44:43;1.37;;;0.70;;
64682;SDS011;51107;47.652;19.016;2023-12-22T12:47:12;0.10;;;0.10;;
64682;SDS011;51107;47.652;19.016;2023-12-22T12:49:42;0.10;;;0.10;;
64682;SDS011;51107;47.652;19.016;2023-12-22T12:52:14;0.95;;;0.30;;
64682;SDS011;51107;47.652;19.016;2023-12-22T12:54:42;1.75;;;0.40;;
64682;SDS011;51107;47.652;19.016;2023-12-22T12:57:17;0.85;;;0.55;;
64682;SDS011;51107;47.652;19.016;2023-12-22T12:59:49;0.77;;;0.25;;
64682;SDS011;51107;47.652;19.016;2023-12-22T13:02:18;0.20;;;0.15;;
64682;SDS011;51107;47.652;19.016;2023-12-22T13:04:48;0.20;;;0.20;;
64682;SDS011;51107;47.652;19.016;2023-12-22T13:07:23;0.15;;;0.15;;
64682;SDS011;51107;47.652;19.016;2023-12-22T13:09:53;1.12;;;0.62;;
64682;SDS011;51107;47.652;19.016;2023-12-22T13:12:24;0.43;;;0.30;;
64682;SDS011;51107;47.652;19.016;2023-12-22T13:14:54;0.40;;;0.32;;
64682;SDS011;51107;47.652;19.016;2023-12-22T13:17:22;0.40;;;0.40;;
64682;SDS011;51107;47.652;19.016;2023-12-22T13:19:50;0.60;;;0.45;;
64682;SDS011;51107;47.652;19.016;2023-12-22T13:22:19;1.52;;;0.47;;
64682;SDS011;51107;47.652;19.016;2023-12-22T13:24:56;0.45;;;0.25;;
64682;SDS011;51107;47.652;19.016;2023-12-22T13:27:26;0.30;;;0.30;;
64682;SDS011;51107;47.652;19.016;2023-12-22T13:29:53;0.35;;;0.35;;
64682;SDS011;51107;47.652;19.016;2023-12-22T13:32:22;0.10;;;0.10;;
64682;SDS011;51107;47.652;19.016;2023-12-22T13:34:53;1.95;;;0.43;;
64682;SDS011;51107;47.652;19.016;2023-12-22T13:37:22;0.10;;;0.10;;
64682;SDS011;51107;47.652;19.016;2023-12-22T13:39:54;0.10;;;0.10;;
64682;SDS011;51107;47.652;19.016;2023-12-22T13:42:22;4.03;;;0.62;;
64682;SDS011;51107;47.652;19.016;2023-12-22T13:44:52;1.08;;;0.50;;
64682;SDS011;51107;47.652;19.016;2023-12-22T13:47:21;0.47;;;0.47;;
64682;SDS011;51107;47.652;19.016;2023-12-22T13:49:52;1.75;;;0.55;;
64682;SDS011;51107;47.652;19.016;2023-12-22T13:52:24;2.87;;;0.55;;
64682;SDS011;51107;47.652;19.016;2023-12-22T13:54:54;1.12;;;0.70;;
64682;SDS011;51107;47.652;19.016;2023-12-22T13:57:24;2.12;;;1.00;;
64682;SDS011;51107;47.652;19.016;2023-12-22T13:59:54;1.30;;;1.20;;
64682;SDS011;51107;47.652;19.016;2023-12-22T14:02:22;4.78;;;0.98;;
64682;SDS011;51107;47.652;19.016;2023-12-22T14:04:51;1.60;;;1.12;;
64682;SDS011;51107;47.652;19.016;2023-12-22T14:07:20;1.35;;;1.23;;
64682;SDS011;51107;47.652;19.016;2023-12-22T14:09:48;1.95;;;0.68;;
64682;SDS011;51107;47.652;19.016;2023-12-22T14:12:16;0.90;;;0.70;;
64682;SDS011;51107;47.652;19.016;2023-12-22T14:14:55;0.45;;;0.22;;
64682;SDS011;51107;47.652;19.016;2023-12-22T14:17:24;1.25;;;0.45;;
64682;SDS011;51107;47.652;19.016;2023-12-22T14:19:52;0.50;;;0.32;;
64682;SDS011;51107;47.652;19.016;2023-12-22T14:22:20;1.25;;;0.68;;
64682;SDS011;51107;47.652;19.016;2023-12-22T14:24:48;0.50;;;0.47;;
64682;SDS011;51107;47.652;19.016;2023-12-22T14:27:16;1.60;;;0.73;;
64682;SDS011;51107;47.652;19.016;2023-12-22T14:29:46;0.50;;;0.35;;
64682;SDS011;51107;47.652;19.016;2023-12-22T14:32:14;0.65;;;0.30;;
64682;SDS011;51107;47.652;19.016;2023-12-22T14:34:43;0.52;;;0.37;;
64682;SDS011;51107;47.652;19.016;2023-12-22T14:37:11;0.28;;;0.28;;
64682;SDS011;51107;47.652;19.016;2023-12-22T14:39:39;0.80;;;0.37;;
64682;SDS011;51107;47.652;19.016;2023-12-22T14:42:07;1.62;;;0.65;;
64682;SDS011;51107;47.652;19.016;2023-12-22T14:44:35;1.35;;;0.50;;
64682;SDS011;51107;47.652;19.016;2023-12-22T14:47:07;0.52;;;0.37;;
64682;SDS011;51107;47.652;19.016;2023-12-22T14:49:40;1.33;;;0.80;;